Time;durP1;ratioP1;P1;durP2;ratioP2;P2;SDS_P1;SDS_P2;PMS_P1;PMS_P2;Temp;Humidity;BMP_temperature;BMP_pressure;BME280_temperature;BME280_humidity;BME280_pressure;Samples;Min_cycle;Max_cycle;Signal;HPM_P1;HPM_P2
2021/09/05 00:02:10;;;;;;;10.13;6.37;;;13.30;99.90;;;;;;5106634;27;20212;-47
2021/09/05 00:04:37;;;;;;;9.13;5.83;;;13.30;99.90;;;;;;5115757;27;20216;-46
2021/09/05 00:07:04;;;;;;;8.73;5.93;;;13.30;99.90;;;;;;5104963;27;20205;-44
2021/09/05 00:09:31;;;;;;;7.27;6.20;;;13.30;99.90;;;;;;5119458;27;20215;-51
2021/09/05 00:11:57;;;;;;;9.37;5.93;;;13.20;99.90;;;;;;5116574;27;20197;-47
2021/09/05 00:14:24;;;;;;;7.50;5.87;;;13.20;99.90;;;;;;5115285;27;20579;-51
2021/09/05 00:16:52;;;;;;;8.47;5.33;;;13.20;99.90;;;;;;5114651;27;20203;-46
2021/09/05 00:19:19;;;;;;;9.30;5.50;;;13.20;99.90;;;;;;5110075;27;20219;-51
2021/09/05 00:21:46;;;;;;;8.20;5.30;;;13.20;99.90;;;;;;5092280;27;20223;-43
2021/09/05 00:24:13;;;;;;;9.60;6.00;;;13.10;99.90;;;;;;5122926;27;20213;-43
2021/09/05 00:26:39;;;;;;;9.43;5.60;;;13.10;99.90;;;;;;5111185;27;20885;-45
2021/09/05 00:29:06;;;;;;;7.43;5.13;;;13.10;99.90;;;;;;5137724;27;20196;-44
2021/09/05 00:31:33;;;;;;;7.03;5.17;;;13.00;99.90;;;;;;5108131;27;20200;-54
2021/09/05 00:34:03;;;;;;;10.00;5.30;;;13.00;99.90;;;;;;5119409;27;20221;-47
2021/09/05 00:36:30;;;;;;;7.13;5.40;;;13.00;99.90;;;;;;5102236;27;20224;-51
2021/09/05 00:38:57;;;;;;;8.10;5.20;;;12.90;99.90;;;;;;5120348;27;20237;-48
2021/09/05 00:41:24;;;;;;;7.67;5.77;;;12.90;99.90;;;;;;5120373;28;20196;-52
2021/09/05 00:44:00;;;;;;;7.47;5.27;;;12.90;99.90;;;;;;5113272;27;20339;-44
2021/09/05 00:46:27;;;;;;;6.80;5.13;;;12.90;99.90;;;;;;5113882;27;20193;-51
2021/09/05 00:48:54;;;;;;;8.17;5.30;;;12.90;99.90;;;;;;5098609;27;20203;-47
2021/09/05 00:51:23;;;;;;;8.13;5.87;;;12.90;99.90;;;;;;5101210;28;20705;-51
2021/09/05 00:53:50;;;;;;;8.40;4.97;;;12.90;99.90;;;;;;5097549;27;20213;-46
2021/09/05 00:56:17;;;;;;;6.77;5.00;;;12.90;99.90;;;;;;5122071;27;20188;-51
2021/09/05 00:58:45;;;;;;;8.47;5.13;;;12.80;99.90;;;;;;5128375;27;20996;-45
2021/09/05 01:01:13;;;;;;;6.47;5.07;;;12.80;99.90;;;;;;5139932;27;20195;-44
2021/09/05 01:03:41;;;;;;;6.53;4.93;;;12.80;99.90;;;;;;5116594;27;20299;-43
2021/09/05 01:06:08;;;;;;;8.63;4.50;;;12.80;99.90;;;;;;5125606;27;20188;-43
2021/09/05 01:08:36;;;;;;;9.53;4.43;;;12.70;99.90;;;;;;5107061;27;20208;-50
2021/09/05 01:11:05;;;;;;;5.90;5.03;;;12.70;99.90;;;;;;5126407;27;20308;-43
2021/09/05 01:13:34;;;;;;;5.93;5.20;;;12.70;99.90;;;;;;5123904;27;20216;-51
2021/09/05 01:16:01;;;;;;;5.97;5.30;;;12.70;99.90;;;;;;5126741;27;20232;-48
2021/09/05 01:18:36;;;;;;;9.53;5.03;;;12.60;99.90;;;;;;5122511;27;20211;-43
2021/09/05 01:21:23;;;;;;;7.43;5.10;;;12.60;99.90;;;;;;5103784;27;20216;-53
2021/09/05 01:24:19;;;;;;;8.90;5.07;;;12.60;99.90;;;;;;5098915;27;20315;-51
2021/09/05 01:27:16;;;;;;;7.00;4.47;;;12.60;99.90;;;;;;5119605;27;20204;-47
2021/09/05 01:30:01;;;;;;;7.07;4.83;;;12.60;99.90;;;;;;5134553;27;20728;-44
2021/09/05 01:32:48;;;;;;;5.43;4.93;;;12.50;99.90;;;;;;5124325;27;20197;-46
2021/09/05 01:35:36;;;;;;;7.90;4.93;;;12.50;99.90;;;;;;5110639;27;20282;-52
2021/09/05 01:38:21;;;;;;;7.20;4.60;;;12.50;99.90;;;;;;5111487;27;20587;-52
2021/09/05 01:41:08;;;;;;;6.40;5.03;;;12.40;99.90;;;;;;5111958;27;20324;-43
2021/09/05 01:43:59;;;;;;;7.20;5.20;;;12.40;99.90;;;;;;5115474;27;20233;-55
2021/09/05 01:46:44;;;;;;;7.13;4.77;;;12.30;99.90;;;;;;5106405;28;20219;-46
2021/09/05 01:49:46;;;;;;;5.97;4.70;;;12.30;99.90;;;;;;5105955;27;20217;-45
2021/09/05 01:52:31;;;;;;;7.53;4.50;;;12.30;99.90;;;;;;5123498;27;20356;-44
2021/09/05 01:55:17;;;;;;;7.90;4.67;;;12.30;99.90;;;;;;5090754;27;20333;-44
2021/09/05 01:58:12;;;;;;;8.07;5.00;;;12.30;99.90;;;;;;5111915;27;20249;-49
2021/09/05 02:00:58;;;;;;;10.27;5.30;;;12.20;99.90;;;;;;5140786;27;20199;-50
2021/09/05 02:03:40;;;;;;;8.50;4.90;;;12.20;99.90;;;;;;5125551;27;20659;-48
2021/09/05 02:06:27;;;;;;;7.20;4.80;;;12.20;99.90;;;;;;5119265;27;20958;-46
2021/09/05 02:09:21;;;;;;;7.27;4.50;;;12.20;99.90;;;;;;5123473;27;20184;-45
2021/09/05 02:12:06;;;;;;;6.83;5.20;;;12.20;99.90;;;;;;5109598;27;20233;-52
2021/09/05 02:14:55;;;;;;;6.13;4.67;;;12.20;99.90;;;;;;5118022;27;20713;-53
2021/09/05 02:17:42;;;;;;;5.93;4.50;;;12.20;99.90;;;;;;5126701;27;20538;-44
2021/09/05 02:20:23;;;;;;;9.67;5.23;;;12.10;99.90;;;;;;5104538;27;20190;-44
2021/09/05 02:23:08;;;;;;;8.87;4.63;;;12.10;99.90;;;;;;5098156;27;20726;-55
2021/09/05 02:25:55;;;;;;;7.20;4.63;;;12.10;99.90;;;;;;5132582;27;20199;-54
2021/09/05 02:28:40;;;;;;;15.40;5.33;;;12.00;99.90;;;;;;5120333;27;21024;-50
2021/09/05 02:31:31;;;;;;;8.60;4.73;;;12.00;99.90;;;;;;5115286;27;20230;-46
2021/09/05 02:34:34;;;;;;;10.10;5.47;;;12.00;99.90;;;;;;5107230;27;20225;-47
2021/09/05 02:37:27;;;;;;;5.63;4.87;;;12.00;99.90;;;;;;5122111;27;20559;-49
2021/09/05 02:40:09;;;;;;;8.53;5.03;;;12.00;99.90;;;;;;5103459;27;20620;-52
2021/09/05 02:43:00;;;;;;;5.93;5.03;;;12.00;99.90;;;;;;5091814;27;20292;-52
2021/09/05 02:46:01;;;;;;;11.17;4.77;;;12.00;99.90;;;;;;5110732;27;20288;-51
2021/09/05 02:48:47;;;;;;;7.30;4.60;;;11.90;99.90;;;;;;5125475;27;20586;-44
2021/09/05 02:51:42;;;;;;;8.10;4.70;;;11.90;99.90;;;;;;5109701;27;20224;-49
2021/09/05 02:54:47;;;;;;;8.13;4.50;;;11.90;99.90;;;;;;5105096;28;20225;-48
2021/09/05 02:57:30;;;;;;;8.23;4.63;;;11.90;99.90;;;;;;5116227;27;20704;-45
2021/09/05 03:00:16;;;;;;;7.43;5.00;;;11.90;99.90;;;;;;5105497;27;20225;-49
2021/09/05 03:03:04;;;;;;;8.80;3.83;;;11.90;99.90;;;;;;5121448;27;20227;-50
2021/09/05 03:05:50;;;;;;;8.77;4.90;;;11.90;99.90;;;;;;5123384;27;20250;-46
2021/09/05 03:08:56;;;;;;;6.37;4.73;;;11.90;99.90;;;;;;5124287;27;20200;-54
2021/09/05 03:11:40;;;;;;;6.30;4.30;;;11.90;99.90;;;;;;5123877;27;20326;-46
2021/09/05 03:14:27;;;;;;;5.90;4.57;;;11.80;99.90;;;;;;5100280;27;20235;-45
2021/09/05 03:17:16;;;;;;;6.67;4.70;;;11.80;99.90;;;;;;5120647;27;20853;-44
2021/09/05 03:20:04;;;;;;;9.00;4.50;;;11.80;99.90;;;;;;5121490;27;20292;-52
2021/09/05 03:22:52;;;;;;;7.93;4.90;;;11.80;99.90;;;;;;5123469;27;20853;-52
2021/09/05 03:25:48;;;;;;;8.23;3.97;;;11.80;99.90;;;;;;5123374;27;20193;-44
2021/09/05 03:28:38;;;;;;;6.67;4.60;;;11.70;99.90;;;;;;5118508;27;20205;-48
2021/09/05 03:31:31;;;;;;;7.67;5.23;;;11.80;99.90;;;;;;5090036;27;20228;-44
2021/09/05 03:34:18;;;;;;;7.70;4.57;;;11.70;99.90;;;;;;5119909;27;20301;-44
2021/09/05 03:37:16;;;;;;;6.70;4.53;;;11.70;99.90;;;;;;5120552;27;20196;-47
2021/09/05 03:40:00;;;;;;;7.73;4.80;;;11.70;99.90;;;;;;5121589;27;20245;-53
2021/09/05 03:42:54;;;;;;;9.80;4.83;;;11.70;99.90;;;;;;5123817;27;20658;-53
2021/09/05 03:45:44;;;;;;;6.47;4.70;;;11.70;99.90;;;;;;5123515;27;20200;-44
2021/09/05 03:48:33;;;;;;;7.60;5.07;;;11.60;99.90;;;;;;5120797;27;20204;-44
2021/09/05 03:51:12;;;;;;;7.23;4.60;;;11.60;99.90;;;;;;5119382;27;21010;-44
2021/09/05 03:53:45;;;;;;;6.30;4.63;;;11.60;99.90;;;;;;5105120;27;20316;-51
2021/09/05 03:56:13;;;;;;;7.93;4.30;;;11.60;99.90;;;;;;5101315;28;20280;-45
2021/09/05 03:58:41;;;;;;;6.97;4.60;;;11.60;99.90;;;;;;5124779;27;20188;-50
2021/09/05 04:01:08;;;;;;;8.73;4.40;;;11.60;99.90;;;;;;5113477;27;20209;-44
2021/09/05 04:03:38;;;;;;;7.13;5.20;;;11.60;99.90;;;;;;5104444;27;20298;-54
2021/09/05 04:06:05;;;;;;;6.97;4.67;;;11.60;99.90;;;;;;5120028;27;20187;-43
2021/09/05 04:08:38;;;;;;;7.77;4.37;;;11.60;99.90;;;;;;5110513;27;20186;-44
2021/09/05 04:11:05;;;;;;;5.80;4.63;;;11.60;99.90;;;;;;5109080;27;20200;-45
2021/09/05 04:13:31;;;;;;;8.50;4.73;;;11.60;99.90;;;;;;5111878;27;20214;-44
2021/09/05 04:15:59;;;;;;;6.37;4.50;;;11.50;99.90;;;;;;5114035;27;20207;-46
2021/09/05 04:18:26;;;;;;;7.00;4.80;;;11.50;99.90;;;;;;5104457;27;20205;-44
2021/09/05 04:20:53;;;;;;;9.47;5.67;;;11.50;99.90;;;;;;5116477;27;20668;-51
2021/09/05 04:23:20;;;;;;;6.67;4.50;;;11.50;99.90;;;;;;5120265;28;20224;-46
2021/09/05 04:25:46;;;;;;;6.93;4.50;;;11.50;99.90;;;;;;5121921;27;20211;-50
2021/09/05 04:28:13;;;;;;;7.97;4.47;;;11.50;99.90;;;;;;5117055;27;20195;-44
2021/09/05 04:30:40;;;;;;;6.77;4.70;;;11.50;99.90;;;;;;5114558;27;20213;-47
2021/09/05 04:33:07;;;;;;;9.23;4.30;;;11.50;99.90;;;;;;5101518;27;20231;-45
2021/09/05 04:35:34;;;;;;;6.60;4.70;;;11.50;99.90;;;;;;5123177;27;20208;-49
2021/09/05 04:38:01;;;;;;;6.87;4.40;;;11.40;99.90;;;;;;5123703;27;20192;-43
2021/09/05 04:40:27;;;;;;;7.67;4.53;;;11.40;99.90;;;;;;5126793;27;20668;-45
2021/09/05 04:42:54;;;;;;;7.10;4.70;;;11.50;99.90;;;;;;5103253;27;20187;-49
2021/09/05 04:45:21;;;;;;;5.33;4.53;;;11.40;99.90;;;;;;5108084;27;20211;-43
2021/09/05 04:47:47;;;;;;;7.73;4.87;;;11.40;99.90;;;;;;5113049;27;20201;-50
2021/09/05 04:50:16;;;;;;;6.20;4.53;;;11.40;99.90;;;;;;5111722;27;20212;-43
2021/09/05 04:52:42;;;;;;;8.27;4.40;;;11.50;99.90;;;;;;5125567;27;20201;-52
2021/09/05 04:55:09;;;;;;;8.87;4.83;;;11.40;99.90;;;;;;5125977;27;20205;-45
2021/09/05 04:57:36;;;;;;;6.07;4.00;;;11.40;99.90;;;;;;5126033;27;20203;-50
2021/09/05 05:00:03;;;;;;;5.43;3.63;;;11.50;99.90;;;;;;5117993;27;20208;-48
2021/09/05 05:02:30;;;;;;;4.73;3.90;;;11.50;99.90;;;;;;5118780;27;20204;-44
2021/09/05 05:04:57;;;;;;;7.93;4.80;;;11.40;99.90;;;;;;5100225;27;20219;-48
2021/09/05 05:07:25;;;;;;;7.03;4.13;;;11.50;99.90;;;;;;5124484;27;20194;-44
2021/09/05 05:09:54;;;;;;;7.60;4.20;;;11.50;99.90;;;;;;5116572;27;20651;-50
2021/09/05 05:12:21;;;;;;;5.23;4.07;;;11.50;99.90;;;;;;5116262;27;20221;-43
2021/09/05 05:14:47;;;;;;;9.00;4.47;;;11.50;99.90;;;;;;5109410;27;20212;-52
2021/09/05 05:17:14;;;;;;;6.30;3.63;;;11.50;99.90;;;;;;5110893;27;20223;-44
2021/09/05 05:19:40;;;;;;;6.83;4.00;;;11.50;99.90;;;;;;5109703;27;20193;-53
2021/09/05 05:22:07;;;;;;;5.33;3.60;;;11.50;99.90;;;;;;5098611;27;20465;-44
2021/09/05 05:24:35;;;;;;;6.80;3.90;;;11.60;99.90;;;;;;5122723;27;20220;-48
2021/09/05 05:27:02;;;;;;;6.30;3.23;;;11.60;99.90;;;;;;5111073;27;20196;-47
2021/09/05 05:29:28;;;;;;;7.70;4.00;;;11.60;99.90;;;;;;5115604;27;20188;-44
2021/09/05 05:31:55;;;;;;;4.73;3.50;;;11.60;99.90;;;;;;5108586;27;21190;-44
2021/09/05 05:34:22;;;;;;;5.97;3.33;;;11.60;99.90;;;;;;5121769;27;20213;-47
2021/09/05 05:36:48;;;;;;;6.17;3.20;;;11.70;99.90;;;;;;5094724;27;20197;-51
2021/09/05 05:39:15;;;;;;;6.27;3.80;;;11.70;99.90;;;;;;5123603;27;20207;-44
2021/09/05 05:41:43;;;;;;;4.93;3.63;;;11.70;99.90;;;;;;5124047;27;20193;-51
2021/09/05 05:44:09;;;;;;;7.53;3.67;;;11.80;99.90;;;;;;5104939;27;20198;-45
2021/09/05 05:46:36;;;;;;;5.57;3.47;;;11.80;99.90;;;;;;5108731;27;20201;-52
2021/09/05 05:49:02;;;;;;;5.80;3.63;;;11.80;99.90;;;;;;5098716;27;20185;-45
2021/09/05 05:51:29;;;;;;;4.77;3.30;;;11.80;99.90;;;;;;5115899;27;20213;-44
2021/09/05 05:53:57;;;;;;;4.33;3.13;;;11.90;99.90;;;;;;5103808;27;20839;-44
2021/09/05 05:56:23;;;;;;;5.30;2.87;;;11.90;99.90;;;;;;5116192;27;20276;-48
2021/09/05 05:58:51;;;;;;;4.40;2.90;;;11.90;99.90;;;;;;5128152;27;20189;-51
2021/09/05 06:01:18;;;;;;;6.97;3.70;;;12.00;99.90;;;;;;5133617;27;20196;-43
2021/09/05 06:03:53;;;;;;;5.73;3.30;;;12.00;99.90;;;;;;5106257;27;20225;-49
2021/09/05 06:06:20;;;;;;;4.90;3.03;;;12.00;99.90;;;;;;5124538;27;20194;-45
2021/09/05 06:08:46;;;;;;;5.27;2.70;;;12.10;99.90;;;;;;5107064;27;20219;-51
2021/09/05 06:11:13;;;;;;;4.80;3.17;;;12.10;99.90;;;;;;5124565;27;20200;-51
2021/09/05 06:13:39;;;;;;;4.77;2.90;;;12.20;99.90;;;;;;5116284;27;20228;-49
2021/09/05 06:16:07;;;;;;;5.23;3.03;;;12.20;99.90;;;;;;5112933;27;20181;-45
2021/09/05 06:18:34;;;;;;;5.37;3.47;;;12.30;99.90;;;;;;5124734;27;20215;-53
2021/09/05 06:21:01;;;;;;;4.03;2.83;;;12.30;99.90;;;;;;5103861;27;20193;-45
2021/09/05 06:23:28;;;;;;;4.17;2.50;;;12.40;99.90;;;;;;5112500;27;20227;-47
2021/09/05 06:25:54;;;;;;;6.77;2.57;;;12.40;99.90;;;;;;5121737;27;20330;-43
2021/09/05 06:28:21;;;;;;;3.27;2.40;;;12.40;99.90;;;;;;5125168;27;20200;-44
2021/09/05 06:30:48;;;;;;;6.53;2.80;;;12.50;99.90;;;;;;5117137;27;20201;-52
2021/09/05 06:33:15;;;;;;;6.30;2.83;;;12.50;99.90;;;;;;5115499;27;20208;-48
2021/09/05 06:35:42;;;;;;;3.53;2.57;;;12.60;99.90;;;;;;5117515;27;20201;-50
2021/09/05 06:38:09;;;;;;;2.70;2.50;;;12.60;99.90;;;;;;5097981;27;20213;-45
2021/09/05 06:40:35;;;;;;;3.10;2.50;;;12.70;99.90;;;;;;5123987;27;20220;-54
2021/09/05 06:43:02;;;;;;;3.27;2.53;;;12.80;99.90;;;;;;5116825;27;20318;-46
2021/09/05 06:45:29;;;;;;;4.03;2.70;;;12.80;99.90;;;;;;5114103;27;20204;-46
2021/09/05 06:47:55;;;;;;;3.97;2.67;;;12.90;99.90;;;;;;5113690;27;20186;-46
2021/09/05 06:50:23;;;;;;;3.03;2.60;;;12.90;99.90;;;;;;5114236;27;20192;-45
2021/09/05 06:52:50;;;;;;;2.67;2.20;;;13.00;99.90;;;;;;5104707;27;20713;-51
2021/09/05 06:55:17;;;;;;;4.30;2.70;;;13.00;99.90;;;;;;5129996;27;20223;-45
2021/09/05 06:57:43;;;;;;;4.17;2.47;;;13.10;99.90;;;;;;5123307;27;20576;-49
2021/09/05 07:00:11;;;;;;;3.70;2.40;;;13.10;99.90;;;;;;5127798;27;20185;-45
2021/09/05 07:02:37;;;;;;;3.73;2.63;;;13.20;99.90;;;;;;5105565;27;20203;-51
2021/09/05 07:05:05;;;;;;;3.77;3.17;;;13.20;99.90;;;;;;5113401;27;20216;-48
2021/09/05 07:07:33;;;;;;;3.23;2.60;;;13.20;99.90;;;;;;5108000;27;20196;-46
2021/09/05 07:10:01;;;;;;;4.00;2.30;;;13.30;99.90;;;;;;5103221;27;20205;-47
2021/09/05 07:12:28;;;;;;;3.53;2.57;;;13.30;99.90;;;;;;5123928;27;20234;-44
2021/09/05 07:14:55;;;;;;;2.77;2.37;;;13.40;99.90;;;;;;5105378;27;20201;-47
2021/09/05 07:17:21;;;;;;;4.97;2.30;;;13.50;99.90;;;;;;5119804;27;20204;-47
2021/09/05 07:19:48;;;;;;;7.53;2.60;;;13.50;99.90;;;;;;5116501;27;20197;-52
2021/09/05 07:22:14;;;;;;;4.73;2.73;;;13.50;99.90;;;;;;5113347;27;20202;-44
2021/09/05 07:24:42;;;;;;;4.13;2.80;;;13.60;99.90;;;;;;5102995;27;20229;-56
2021/09/05 07:27:09;;;;;;;4.03;2.80;;;13.70;99.90;;;;;;5109726;27;20196;-47
2021/09/05 07:29:36;;;;;;;4.50;2.70;;;13.70;99.90;;;;;;5125704;27;20193;-53
2021/09/05 07:32:02;;;;;;;2.67;2.23;;;13.80;99.90;;;;;;5116077;27;20207;-41
2021/09/05 07:34:29;;;;;;;4.00;2.63;;;13.80;99.90;;;;;;5114284;27;20717;-45
2021/09/05 07:36:56;;;;;;;3.67;2.80;;;13.80;99.90;;;;;;5103466;27;20204;-39
2021/09/05 07:39:22;;;;;;;4.57;2.57;;;13.90;99.90;;;;;;5107511;27;20201;-40
2021/09/05 07:41:50;;;;;;;3.10;2.40;;;13.90;99.90;;;;;;5103836;27;20209;-45
2021/09/05 07:44:17;;;;;;;4.67;2.80;;;14.00;99.90;;;;;;5122840;27;20706;-39
2021/09/05 07:46:44;;;;;;;5.63;2.80;;;14.10;99.90;;;;;;5116289;27;20196;-49
2021/09/05 07:49:10;;;;;;;2.57;2.23;;;14.20;99.90;;;;;;5111350;27;20276;-42
2021/09/05 07:51:37;;;;;;;3.30;2.50;;;14.30;99.90;;;;;;5116724;27;20267;-48
2021/09/05 07:54:04;;;;;;;4.27;2.53;;;14.40;99.90;;;;;;5115533;27;20208;-45
2021/09/05 07:56:30;;;;;;;5.63;2.33;;;14.40;99.90;;;;;;5115392;27;20658;-40
2021/09/05 07:58:58;;;;;;;5.03;2.57;;;14.40;99.90;;;;;;5111816;27;20201;-40
2021/09/05 08:01:25;;;;;;;3.63;2.30;;;14.50;99.90;;;;;;5110918;27;20204;-42
2021/09/05 08:03:53;;;;;;;4.10;2.87;;;14.60;99.90;;;;;;5110327;27;20295;-46
2021/09/05 08:06:20;;;;;;;2.77;2.43;;;14.70;99.90;;;;;;5109693;27;20680;-44
2021/09/05 08:08:47;;;;;;;5.47;2.60;;;14.70;99.90;;;;;;5109985;27;20276;-47
2021/09/05 08:11:13;;;;;;;4.30;2.83;;;14.70;99.90;;;;;;5100739;27;20197;-39
2021/09/05 08:13:40;;;;;;;4.03;2.90;;;14.80;99.90;;;;;;5091649;27;20228;-44
2021/09/05 08:16:08;;;;;;;3.67;2.20;;;14.80;99.90;;;;;;5112094;27;20552;-47
2021/09/05 08:18:38;;;;;;;3.13;2.83;;;14.90;99.90;;;;;;5103722;27;20208;-42
2021/09/05 08:21:07;;;;;;;2.77;2.10;;;14.90;99.90;;;;;;5123279;27;20199;-48
2021/09/05 08:23:35;;;;;;;2.90;2.50;;;15.00;99.90;;;;;;5108846;27;20209;-38
2021/09/05 08:26:02;;;;;;;2.60;2.30;;;15.10;99.90;;;;;;5108041;27;20195;-41
2021/09/05 08:28:29;;;;;;;4.30;2.80;;;15.20;99.90;;;;;;5103086;27;20200;-41
2021/09/05 08:30:56;;;;;;;3.37;2.37;;;15.20;99.90;;;;;;5118016;27;20193;-47
2021/09/05 08:33:24;;;;;;;4.07;2.70;;;15.20;99.90;;;;;;5101628;27;20209;-48
2021/09/05 08:35:51;;;;;;;3.47;2.10;;;15.20;99.90;;;;;;5103793;28;20212;-44
2021/09/05 08:38:18;;;;;;;5.63;2.40;;;15.30;99.90;;;;;;5108424;27;20196;-49
2021/09/05 08:40:46;;;;;;;4.53;2.60;;;15.30;99.90;;;;;;5116160;28;20196;-41
2021/09/05 08:43:14;;;;;;;7.00;2.70;;;15.30;99.90;;;;;;5095970;27;20228;-49
2021/09/05 08:45:41;;;;;;;2.77;2.57;;;15.30;99.90;;;;;;5107661;27;20216;-40
2021/09/05 08:48:08;;;;;;;2.77;2.37;;;15.40;99.90;;;;;;5112851;28;20267;-47
2021/09/05 08:50:36;;;;;;;5.03;2.37;;;15.50;99.90;;;;;;5110126;27;20209;-49
2021/09/05 08:53:03;;;;;;;4.07;2.77;;;15.50;99.90;;;;;;5117874;27;20213;-38
2021/09/05 08:55:30;;;;;;;3.93;2.90;;;15.50;99.90;;;;;;5105564;28;20197;-48
2021/09/05 08:57:57;;;;;;;4.17;2.80;;;15.60;99.90;;;;;;5119087;27;21269;-41
2021/09/05 09:00:23;;;;;;;3.07;2.80;;;15.60;99.90;;;;;;5111377;27;20653;-47
2021/09/05 09:02:52;;;;;;;6.03;2.90;;;15.70;99.90;;;;;;5106742;27;20186;-39
2021/09/05 09:05:30;;;;;;;5.27;2.97;;;15.70;99.90;;;;;;5107488;27;20217;-40
2021/09/05 09:08:00;;;;;;;4.53;2.60;;;15.80;99.90;;;;;;5117099;28;20216;-39
2021/09/05 09:10:27;;;;;;;5.83;2.77;;;15.90;99.90;;;;;;5114217;28;20201;-48
2021/09/05 09:12:54;;;;;;;8.80;3.10;;;15.90;99.90;;;;;;5108890;27;20249;-43
2021/09/05 09:15:23;;;;;;;3.00;2.70;;;16.00;99.90;;;;;;5109262;27;20205;-44
2021/09/05 09:17:51;;;;;;;3.60;2.57;;;16.10;99.90;;;;;;5115749;27;20967;-43
2021/09/05 09:20:45;;;;;;;4.77;3.90;;;16.10;99.90;;;;;;5125105;27;20193;-43
2021/09/05 09:23:16;;;;;;;4.90;3.00;;;16.10;99.90;;;;;;5080334;27;20581;-39
2021/09/05 09:25:59;;;;;;;4.03;2.70;;;16.10;99.90;;;;;;5113619;27;20212;-40
2021/09/05 09:28:29;;;;;;;4.03;3.07;;;16.20;99.90;;;;;;5114204;27;20192;-50
2021/09/05 09:30:58;;;;;;;5.07;3.03;;;16.20;99.90;;;;;;5101590;27;20938;-40
2021/09/05 09:33:26;;;;;;;7.87;3.57;;;16.30;99.90;;;;;;5112617;27;20236;-48
2021/09/05 09:35:55;;;;;;;3.13;2.23;;;16.30;99.90;;;;;;5121116;27;20188;-40
2021/09/05 09:38:24;;;;;;;6.87;3.40;;;16.40;99.90;;;;;;5117482;27;20203;-48
2021/09/05 09:41:03;;;;;;;7.57;2.93;;;16.40;99.90;;;;;;5120353;27;20193;-42
2021/09/05 09:43:30;;;;;;;7.10;2.97;;;16.50;99.90;;;;;;5117872;27;20216;-48
2021/09/05 09:46:12;;;;;;;2.93;2.60;;;16.50;99.90;;;;;;5105431;27;20197;-41
2021/09/05 09:48:44;;;;;;;4.87;2.93;;;16.60;99.90;;;;;;5116458;27;20193;-50
2021/09/05 09:51:11;;;;;;;5.90;3.53;;;16.80;99.90;;;;;;5107737;27;20222;-39
2021/09/05 09:53:40;;;;;;;4.70;3.10;;;16.90;99.90;;;;;;5111866;27;20298;-46
2021/09/05 09:56:08;;;;;;;3.83;2.70;;;17.00;99.90;;;;;;5114358;27;20778;-39
2021/09/05 09:58:34;;;;;;;3.80;3.00;;;16.90;99.90;;;;;;5114963;27;20197;-48
2021/09/05 10:01:02;;;;;;;5.37;3.00;;;17.00;99.90;;;;;;5096268;27;20204;-47
2021/09/05 10:03:31;;;;;;;3.90;3.50;;;17.00;99.90;;;;;;5121844;27;20224;-48
2021/09/05 10:05:58;;;;;;;5.53;3.87;;;17.10;99.90;;;;;;5111558;27;20199;-45
2021/09/05 10:08:26;;;;;;;3.57;2.97;;;17.10;99.90;;;;;;5118920;27;20189;-47
2021/09/05 10:10:57;;;;;;;5.73;3.30;;;17.20;99.90;;;;;;5118576;27;20196;-41
2021/09/05 10:13:25;;;;;;;4.40;2.90;;;17.10;99.90;;;;;;5125512;27;20757;-48
2021/09/05 10:15:52;;;;;;;5.50;3.07;;;17.10;99.90;;;;;;5100830;27;20208;-43
2021/09/05 10:18:19;;;;;;;4.20;2.97;;;17.20;99.90;;;;;;5126045;27;20197;-40
2021/09/05 10:20:45;;;;;;;4.23;3.10;;;17.20;99.90;;;;;;5105577;27;20185;-39
2021/09/05 10:23:12;;;;;;;5.97;3.63;;;17.20;99.90;;;;;;5121504;27;20220;-41
2021/09/05 10:25:39;;;;;;;5.80;3.60;;;17.20;99.90;;;;;;5111156;27;20203;-49
2021/09/05 10:28:10;;;;;;;5.17;3.70;;;17.20;99.90;;;;;;5116168;27;20260;-39
2021/09/05 10:30:38;;;;;;;3.33;3.00;;;17.20;99.90;;;;;;5098962;27;20657;-49
2021/09/05 10:33:05;;;;;;;4.53;3.80;;;17.30;99.90;;;;;;5116790;27;20205;-42
2021/09/05 10:35:38;;;;;;;5.50;3.40;;;17.40;99.90;;;;;;5123621;27;20253;-48
2021/09/05 10:38:22;;;;;;;6.63;3.53;;;17.70;99.90;;;;;;5125078;27;20199;-42
2021/09/05 10:40:51;;;;;;;4.10;3.50;;;17.90;99.90;;;;;;5116466;27;20200;-40
2021/09/05 10:43:20;;;;;;;4.73;3.63;;;18.00;99.90;;;;;;5115883;27;20222;-39
2021/09/05 10:45:49;;;;;;;4.10;3.60;;;18.10;99.90;;;;;;5115621;27;20809;-50
2021/09/05 10:48:46;;;;;;;6.33;3.60;;;18.20;99.90;;;;;;5102437;27;20200;-41
2021/09/05 10:51:14;;;;;;;4.00;3.63;;;18.30;99.90;;;;;;5045789;28;20210;-41
2021/09/05 10:53:50;;;;;;;5.00;3.03;;;18.40;99.90;;;;;;5086382;27;20229;-41
2021/09/05 10:56:17;;;;;;;4.07;3.50;;;18.40;99.90;;;;;;5112045;27;20216;-40
2021/09/05 10:58:49;;;;;;;4.37;3.43;;;18.40;99.90;;;;;;5110476;27;20459;-40
2021/09/05 11:01:24;;;;;;;5.63;4.00;;;18.30;99.90;;;;;;5125847;27;20193;-40
2021/09/05 11:04:29;;;;;;;5.20;3.83;;;18.30;99.90;;;;;;5111760;27;20212;-43
2021/09/05 11:07:00;;;;;;;5.13;4.23;;;18.30;99.90;;;;;;5123556;27;20192;-41
2021/09/05 11:09:41;;;;;;;6.40;4.90;;;18.30;99.90;;;;;;5123080;27;20290;-45
2021/09/05 11:12:10;;;;;;;4.67;4.00;;;18.50;99.90;;;;;;5120244;27;20268;-42
2021/09/05 11:14:54;;;;;;;7.43;4.40;;;18.60;99.90;;;;;;5117598;27;20667;-50
2021/09/05 11:17:23;;;;;;;7.17;4.23;;;18.60;99.90;;;;;;5115560;27;20658;-49
2021/09/05 11:19:54;;;;;;;5.00;4.20;;;18.70;99.90;;;;;;5112586;27;20295;-38
2021/09/05 11:22:23;;;;;;;6.00;3.90;;;18.60;99.90;;;;;;5118820;27;20208;-45
2021/09/05 11:25:12;;;;;;;7.70;4.03;;;18.60;99.90;;;;;;5113816;27;20211;-43
2021/09/05 11:27:42;;;;;;;4.77;3.90;;;18.60;99.90;;;;;;5113098;27;20188;-50
2021/09/05 11:30:12;;;;;;;4.97;3.30;;;18.60;99.90;;;;;;5117444;27;20181;-41
2021/09/05 11:32:40;;;;;;;5.27;3.77;;;18.70;99.90;;;;;;5111151;27;20603;-50
2021/09/05 11:35:09;;;;;;;6.67;4.43;;;18.70;99.90;;;;;;5105154;27;20303;-39
2021/09/05 11:37:38;;;;;;;5.07;3.60;;;18.80;99.90;;;;;;5112631;27;20201;-48
2021/09/05 11:40:08;;;;;;;6.17;3.83;;;18.80;99.90;;;;;;5114565;27;20197;-45
2021/09/05 11:42:36;;;;;;;4.40;4.00;;;18.80;99.90;;;;;;5107691;27;20670;-47
2021/09/05 11:45:06;;;;;;;4.73;3.70;;;19.00;99.90;;;;;;5121586;27;20715;-39
2021/09/05 11:47:34;;;;;;;5.13;3.67;;;18.90;99.90;;;;;;5111277;27;20715;-49
2021/09/05 11:50:02;;;;;;;5.50;4.20;;;18.90;99.90;;;;;;5101017;27;20208;-39
2021/09/05 11:52:32;;;;;;;6.80;3.90;;;19.00;99.90;;;;;;5113785;27;20200;-50
2021/09/05 11:55:01;;;;;;;5.03;3.50;;;19.10;99.90;;;;;;5111346;27;20204;-41
2021/09/05 11:57:29;;;;;;;6.80;3.90;;;19.20;99.90;;;;;;5112336;27;20202;-50
2021/09/05 11:59:58;;;;;;;3.93;3.50;;;19.40;99.90;;;;;;5112251;27;20195;-39
2021/09/05 12:02:30;;;;;;;6.37;3.47;;;19.40;99.90;;;;;;5114056;27;20185;-45
2021/09/05 12:04:59;;;;;;;3.97;3.57;;;19.40;99.90;;;;;;5098102;27;20216;-40
2021/09/05 12:07:30;;;;;;;4.73;3.50;;;19.50;99.90;;;;;;5119979;27;20185;-47
2021/09/05 12:10:07;;;;;;;6.20;3.87;;;19.60;99.90;;;;;;5118396;27;20313;-39
2021/09/05 12:12:35;;;;;;;6.57;3.50;;;19.60;99.90;;;;;;5114293;27;20219;-46
2021/09/05 12:15:16;;;;;;;7.37;4.20;;;19.60;99.90;;;;;;5110386;27;20224;-40
2021/09/05 12:17:45;;;;;;;4.37;3.73;;;19.60;99.90;;;;;;5111061;27;20272;-39
2021/09/05 12:20:15;;;;;;;7.27;3.87;;;19.60;99.90;;;;;;5093318;27;20280;-38
2021/09/05 12:22:44;;;;;;;4.80;3.27;;;19.50;99.90;;;;;;5116340;27;20784;-43
2021/09/05 12:25:20;;;;;;;6.70;3.83;;;19.50;99.90;;;;;;5124227;27;20215;-44
2021/09/05 12:27:58;;;;;;;5.40;3.30;;;19.60;99.90;;;;;;5117399;27;20187;-38
2021/09/05 12:30:27;;;;;;;4.67;3.43;;;19.60;99.90;;;;;;5113905;27;20441;-49
2021/09/05 12:33:13;;;;;;;5.63;3.27;;;19.80;99.90;;;;;;5121388;27;20188;-40
2021/09/05 12:35:44;;;;;;;5.03;3.83;;;19.90;99.90;;;;;;5105088;27;24022;-51
2021/09/05 12:38:14;;;;;;;5.37;4.00;;;20.10;99.90;;;;;;5123508;27;20231;-41
2021/09/05 12:40:44;;;;;;;5.97;3.00;;;20.10;99.90;;;;;;5120144;27;20195;-41
2021/09/05 12:43:15;;;;;;;5.27;3.00;;;20.10;99.90;;;;;;5117987;27;20582;-42
2021/09/05 12:45:52;;;;;;;5.17;3.43;;;20.10;99.90;;;;;;5096634;27;20250;-42
2021/09/05 12:48:22;;;;;;;3.53;2.87;;;20.10;99.90;;;;;;5123024;27;20200;-48
2021/09/05 12:51:01;;;;;;;7.23;3.80;;;20.10;99.90;;;;;;5121072;27;20187;-39
2021/09/05 12:53:28;;;;;;;3.33;3.03;;;20.10;99.90;;;;;;5106465;27;20221;-49
2021/09/05 12:55:57;;;;;;;3.60;3.30;;;20.20;99.90;;;;;;5112985;27;20181;-43
2021/09/05 12:58:24;;;;;;;4.47;3.47;;;20.40;99.90;;;;;;5117248;27;20892;-47
2021/09/05 13:00:51;;;;;;;4.97;3.00;;;20.40;99.90;;;;;;5137905;27;20197;-40
2021/09/05 13:03:19;;;;;;;6.03;3.37;;;20.50;99.90;;;;;;5110650;27;20244;-51
2021/09/05 13:05:46;;;;;;;5.23;3.23;;;20.50;99.90;;;;;;5108442;27;20647;-40
2021/09/05 13:08:14;;;;;;;3.07;2.77;;;20.60;99.90;;;;;;5103640;27;20208;-47
2021/09/05 13:10:43;;;;;;;3.50;2.70;;;20.60;99.90;;;;;;5110846;27;20209;-43
2021/09/05 13:13:09;;;;;;;4.30;3.03;;;20.80;99.90;;;;;;5117696;27;20238;-50